Hovedside
METAR-TAF:

METAR-TAF

Lufthavner :

Tulcea, Romania

breddegrad: 45-11N, lengdegrad: 028-49E, høyde over havet: 4 m

Gjeldene værobservasjon

Denne rapporten ble laget for 27 minutter siden, klokken 05:30 UTC
Vind 11 kt fra Nord-nordvest
Temperatur 23°C
Luftfuktighet 89%
Trykk 1008 hPa
Sikt 10 km eller mer
Brutte skyer i en høyde av 1000 ft

METAR: LRTC 220530Z 33011KT 9999 BKN010 23/21 Q1008

Tid: 08:57 (05:57 UTC)

Varsel

Denne rapporten ble laget for 57 minutter siden, klokken 05:00 UTC
Varsel gyldig fra 22. klokken 06 UTC til 22. klokken 15 UTC
Vind 10 kt fra Nord-nordvest
Sikt 10 km eller mer
Brutte skyer i en høyde av 1000 ft
Blir
fra 22. klokken 06 UTC til 22. klokken 08 UTC

TAF: LRTC 220500Z 2206/2215 34010KT 9999 BKN010 BECMG 2206/2208 NSC

Værobservasjoner og værvarsel for over 4000 flyplasser (METAR- og TAF-rapporter).

Tilgjengelige stasjoner er representert av de røde og gule prikkene på kartet.

Hold musepekeren over prikken for å se navnet på stasjonen.

Klikk så for å se værobservasjoner og -varsler.

For å forandre kartet kan du klikke på den grønne knappen med svart kryss for å zoome inn, på den grønne knappen med strek for å zoome ut, eller på de grønne pilene for å se tilstøtende kart.


METAR-TAF: